Broderick, California
Current Conditions -  °F | °C
As of 3:06 PM on Friday 31 Oct 2014 (Local Time) from KSAC Reporting Station
Overcast Overcast  
Wind Chill: 63°   Ceiling: 2800
Heat Index: 63°   Visibility: 10mi
Dew Point: 57°   Wind: 6mph
Humidity: 82%   Direction: 220°SW
Pressure: 29.78"   Gusts: NA
Location:  38.5921°N, 121.545°W
Report Text: KSAC 312206Z AUTO 22005KT 10SM SCT022 BKN028 OVC065 17/14 A2978 RMK AO2 TSNO
Loading
Personal Weather Stations






























Interactive Weather Map
Tropical Storm Tracking
New forecast layout! Learn more

10-Day Weather Forecast

Advertisements
Track Severe Weather on mobile